sensor_id;sensor_type;location;lat;lon;timestamp;P1;durP1;ratioP1;P2;durP2;ratioP2
52210;SDS011;38179;52.756;6.906;2024-01-06T00:01:40;13.02;;;11.38;;
52210;SDS011;38179;52.756;6.906;2024-01-06T00:04:06;12.82;;;11.15;;
52210;SDS011;38179;52.756;6.906;2024-01-06T00:06:32;14.68;;;12.23;;
52210;SDS011;38179;52.756;6.906;2024-01-06T00:08:57;15.48;;;12.55;;
52210;SDS011;38179;52.756;6.906;2024-01-06T00:11:23;13.40;;;11.07;;
52210;SDS011;38179;52.756;6.906;2024-01-06T00:13:49;14.68;;;11.60;;
52210;SDS011;38179;52.756;6.906;2024-01-06T00:16:18;13.70;;;11.88;;
52210;SDS011;38179;52.756;6.906;2024-01-06T00:18:48;13.23;;;11.00;;
52210;SDS011;38179;52.756;6.906;2024-01-06T00:21:14;14.32;;;11.93;;
52210;SDS011;38179;52.756;6.906;2024-01-06T00:23:40;14.60;;;11.90;;
52210;SDS011;38179;52.756;6.906;2024-01-06T00:26:06;14.45;;;12.35;;
52210;SDS011;38179;52.756;6.906;2024-01-06T00:28:33;15.27;;;12.00;;
52210;SDS011;38179;52.756;6.906;2024-01-06T00:30:59;14.05;;;12.07;;
52210;SDS011;38179;52.756;6.906;2024-01-06T00:33:24;15.02;;;12.13;;
52210;SDS011;38179;52.756;6.906;2024-01-06T00:35:50;14.70;;;12.85;;
52210;SDS011;38179;52.756;6.906;2024-01-06T00:38:16;14.13;;;12.38;;
52210;SDS011;38179;52.756;6.906;2024-01-06T00:40:42;15.85;;;12.95;;
52210;SDS011;38179;52.756;6.906;2024-01-06T00:43:07;16.33;;;13.88;;
52210;SDS011;38179;52.756;6.906;2024-01-06T00:45:33;16.73;;;13.80;;
52210;SDS011;38179;52.756;6.906;2024-01-06T00:47:59;16.27;;;13.48;;
52210;SDS011;38179;52.756;6.906;2024-01-06T00:50:24;17.52;;;13.88;;
52210;SDS011;38179;52.756;6.906;2024-01-06T00:52:50;17.35;;;14.32;;
52210;SDS011;38179;52.756;6.906;2024-01-06T00:55:22;17.27;;;15.03;;
52210;SDS011;38179;52.756;6.906;2024-01-06T00:57:48;19.90;;;16.30;;
52210;SDS011;38179;52.756;6.906;2024-01-06T01:00:14;18.95;;;15.77;;
52210;SDS011;38179;52.756;6.906;2024-01-06T01:02:40;19.55;;;16.48;;
52210;SDS011;38179;52.756;6.906;2024-01-06T01:05:06;19.65;;;16.77;;
52210;SDS011;38179;52.756;6.906;2024-01-06T01:07:33;20.10;;;16.48;;
52210;SDS011;38179;52.756;6.906;2024-01-06T01:09:58;19.30;;;15.00;;
52210;SDS011;38179;52.756;6.906;2024-01-06T01:12:24;20.30;;;15.82;;
52210;SDS011;38179;52.756;6.906;2024-01-06T01:14:50;18.67;;;15.25;;
52210;SDS011;38179;52.756;6.906;2024-01-06T01:17:16;19.25;;;16.20;;
52210;SDS011;38179;52.756;6.906;2024-01-06T01:19:42;19.42;;;15.93;;
52210;SDS011;38179;52.756;6.906;2024-01-06T01:22:08;19.17;;;15.48;;
52210;SDS011;38179;52.756;6.906;2024-01-06T01:24:34;17.25;;;15.00;;
52210;SDS011;38179;52.756;6.906;2024-01-06T01:26:59;17.38;;;15.07;;
52210;SDS011;38179;52.756;6.906;2024-01-06T01:29:25;19.70;;;15.70;;
52210;SDS011;38179;52.756;6.906;2024-01-06T01:31:51;18.98;;;15.70;;
52210;SDS011;38179;52.756;6.906;2024-01-06T01:34:17;19.55;;;16.33;;
52210;SDS011;38179;52.756;6.906;2024-01-06T01:36:42;18.35;;;15.30;;
52210;SDS011;38179;52.756;6.906;2024-01-06T01:39:08;18.90;;;15.77;;
52210;SDS011;38179;52.756;6.906;2024-01-06T01:41:34;20.48;;;16.38;;
52210;SDS011;38179;52.756;6.906;2024-01-06T01:44:01;20.58;;;17.10;;
52210;SDS011;38179;52.756;6.906;2024-01-06T01:46:27;19.58;;;16.23;;
52210;SDS011;38179;52.756;6.906;2024-01-06T01:48:54;21.75;;;17.55;;
52210;SDS011;38179;52.756;6.906;2024-01-06T01:51:20;24.63;;;19.15;;
52210;SDS011;38179;52.756;6.906;2024-01-06T01:53:46;23.92;;;19.02;;
52210;SDS011;38179;52.756;6.906;2024-01-06T01:56:12;22.80;;;18.45;;
52210;SDS011;38179;52.756;6.906;2024-01-06T01:58:39;23.23;;;18.25;;
52210;SDS011;38179;52.756;6.906;2024-01-06T02:01:06;22.17;;;18.13;;
52210;SDS011;38179;52.756;6.906;2024-01-06T02:03:32;22.27;;;18.35;;
52210;SDS011;38179;52.756;6.906;2024-01-06T02:05:58;23.13;;;18.23;;
52210;SDS011;38179;52.756;6.906;2024-01-06T02:08:24;24.15;;;18.33;;
52210;SDS011;38179;52.756;6.906;2024-01-06T02:10:50;21.90;;;17.10;;
52210;SDS011;38179;52.756;6.906;2024-01-06T02:13:15;22.52;;;17.02;;
52210;SDS011;38179;52.756;6.906;2024-01-06T02:15:41;21.77;;;17.35;;
52210;SDS011;38179;52.756;6.906;2024-01-06T02:18:07;22.95;;;17.27;;
52210;SDS011;38179;52.756;6.906;2024-01-06T02:20:33;21.00;;;16.95;;
52210;SDS011;38179;52.756;6.906;2024-01-06T02:22:59;22.85;;;18.50;;
52210;SDS011;38179;52.756;6.906;2024-01-06T02:25:25;19.98;;;16.30;;
52210;SDS011;38179;52.756;6.906;2024-01-06T02:27:51;20.40;;;16.80;;
52210;SDS011;38179;52.756;6.906;2024-01-06T02:30:17;23.70;;;17.45;;
52210;SDS011;38179;52.756;6.906;2024-01-06T02:32:42;23.05;;;17.77;;
52210;SDS011;38179;52.756;6.906;2024-01-06T02:35:08;23.95;;;17.63;;
52210;SDS011;38179;52.756;6.906;2024-01-06T02:37:33;24.10;;;17.60;;
52210;SDS011;38179;52.756;6.906;2024-01-06T02:39:59;24.00;;;17.90;;
52210;SDS011;38179;52.756;6.906;2024-01-06T02:42:25;25.75;;;18.77;;
52210;SDS011;38179;52.756;6.906;2024-01-06T02:44:51;24.33;;;18.75;;
52210;SDS011;38179;52.756;6.906;2024-01-06T02:47:16;24.05;;;19.20;;
52210;SDS011;38179;52.756;6.906;2024-01-06T02:49:42;24.85;;;18.70;;
52210;SDS011;38179;52.756;6.906;2024-01-06T02:52:08;22.50;;;17.40;;
52210;SDS011;38179;52.756;6.906;2024-01-06T02:54:34;24.00;;;18.77;;
52210;SDS011;38179;52.756;6.906;2024-01-06T02:56:59;21.88;;;17.13;;
52210;SDS011;38179;52.756;6.906;2024-01-06T02:59:25;25.13;;;18.48;;
52210;SDS011;38179;52.756;6.906;2024-01-06T03:01:50;23.42;;;18.30;;
52210;SDS011;38179;52.756;6.906;2024-01-06T03:04:16;26.45;;;18.67;;
52210;SDS011;38179;52.756;6.906;2024-01-06T03:06:42;24.30;;;19.00;;
52210;SDS011;38179;52.756;6.906;2024-01-06T03:09:08;25.70;;;19.08;;
52210;SDS011;38179;52.756;6.906;2024-01-06T03:11:33;27.65;;;19.20;;
52210;SDS011;38179;52.756;6.906;2024-01-06T03:13:59;24.33;;;18.75;;
52210;SDS011;38179;52.756;6.906;2024-01-06T03:16:25;26.23;;;18.80;;
52210;SDS011;38179;52.756;6.906;2024-01-06T03:18:53;24.23;;;17.67;;
52210;SDS011;38179;52.756;6.906;2024-01-06T03:21:20;23.70;;;18.02;;
52210;SDS011;38179;52.756;6.906;2024-01-06T03:23:46;24.45;;;19.38;;
52210;SDS011;38179;52.756;6.906;2024-01-06T03:26:13;23.60;;;18.15;;
52210;SDS011;38179;52.756;6.906;2024-01-06T03:28:39;23.25;;;18.25;;
52210;SDS011;38179;52.756;6.906;2024-01-06T03:31:04;25.73;;;18.98;;
52210;SDS011;38179;52.756;6.906;2024-01-06T03:33:30;23.45;;;17.75;;
52210;SDS011;38179;52.756;6.906;2024-01-06T03:35:56;23.20;;;18.17;;
52210;SDS011;38179;52.756;6.906;2024-01-06T03:38:21;25.98;;;17.80;;
52210;SDS011;38179;52.756;6.906;2024-01-06T03:40:47;22.67;;;17.45;;
52210;SDS011;38179;52.756;6.906;2024-01-06T03:43:13;22.55;;;17.92;;
52210;SDS011;38179;52.756;6.906;2024-01-06T03:45:38;22.00;;;16.92;;
52210;SDS011;38179;52.756;6.906;2024-01-06T03:48:04;23.38;;;17.05;;
52210;SDS011;38179;52.756;6.906;2024-01-06T03:50:30;24.95;;;18.20;;
52210;SDS011;38179;52.756;6.906;2024-01-06T03:52:56;22.50;;;17.00;;
52210;SDS011;38179;52.756;6.906;2024-01-06T03:55:22;22.13;;;17.10;;
52210;SDS011;38179;52.756;6.906;2024-01-06T03:57:48;23.80;;;17.95;;
52210;SDS011;38179;52.756;6.906;2024-01-06T04:00:13;21.95;;;16.40;;
52210;SDS011;38179;52.756;6.906;2024-01-06T04:02:39;21.65;;;15.65;;
52210;SDS011;38179;52.756;6.906;2024-01-06T04:05:05;20.85;;;15.90;;
52210;SDS011;38179;52.756;6.906;2024-01-06T04:07:31;21.23;;;16.42;;
52210;SDS011;38179;52.756;6.906;2024-01-06T04:09:57;19.95;;;14.98;;
52210;SDS011;38179;52.756;6.906;2024-01-06T04:12:23;21.92;;;15.10;;
52210;SDS011;38179;52.756;6.906;2024-01-06T04:14:48;20.05;;;15.50;;
52210;SDS011;38179;52.756;6.906;2024-01-06T04:17:14;24.65;;;17.35;;
52210;SDS011;38179;52.756;6.906;2024-01-06T04:19:40;22.02;;;17.08;;
52210;SDS011;38179;52.756;6.906;2024-01-06T04:22:05;22.95;;;17.45;;
52210;SDS011;38179;52.756;6.906;2024-01-06T04:24:32;21.35;;;16.20;;
52210;SDS011;38179;52.756;6.906;2024-01-06T04:27:02;17.95;;;14.52;;
52210;SDS011;38179;52.756;6.906;2024-01-06T04:29:29;20.83;;;14.73;;
52210;SDS011;38179;52.756;6.906;2024-01-06T04:31:55;16.35;;;13.57;;
52210;SDS011;38179;52.756;6.906;2024-01-06T04:34:21;18.98;;;14.55;;
52210;SDS011;38179;52.756;6.906;2024-01-06T04:36:46;21.52;;;16.80;;
52210;SDS011;38179;52.756;6.906;2024-01-06T04:39:13;22.73;;;16.75;;
52210;SDS011;38179;52.756;6.906;2024-01-06T04:41:40;23.08;;;16.75;;
52210;SDS011;38179;52.756;6.906;2024-01-06T04:44:05;20.25;;;15.02;;
52210;SDS011;38179;52.756;6.906;2024-01-06T04:46:31;19.30;;;15.65;;
52210;SDS011;38179;52.756;6.906;2024-01-06T04:48:57;18.50;;;14.70;;
52210;SDS011;38179;52.756;6.906;2024-01-06T04:51:23;19.38;;;14.68;;
52210;SDS011;38179;52.756;6.906;2024-01-06T04:53:49;19.48;;;14.90;;
52210;SDS011;38179;52.756;6.906;2024-01-06T04:56:15;20.67;;;16.10;;
52210;SDS011;38179;52.756;6.906;2024-01-06T04:58:40;21.27;;;15.90;;
52210;SDS011;38179;52.756;6.906;2024-01-06T05:01:06;21.65;;;16.08;;
52210;SDS011;38179;52.756;6.906;2024-01-06T05:03:33;20.83;;;15.85;;
52210;SDS011;38179;52.756;6.906;2024-01-06T05:05:58;23.50;;;16.40;;
52210;SDS011;38179;52.756;6.906;2024-01-06T05:08:24;22.45;;;16.70;;
52210;SDS011;38179;52.756;6.906;2024-01-06T05:10:51;22.63;;;16.92;;
52210;SDS011;38179;52.756;6.906;2024-01-06T05:13:18;22.23;;;17.20;;
52210;SDS011;38179;52.756;6.906;2024-01-06T05:15:44;21.48;;;15.77;;
52210;SDS011;38179;52.756;6.906;2024-01-06T05:18:09;22.13;;;15.90;;
52210;SDS011;38179;52.756;6.906;2024-01-06T05:20:38;22.58;;;16.35;;
52210;SDS011;38179;52.756;6.906;2024-01-06T05:23:06;23.25;;;16.35;;
52210;SDS011;38179;52.756;6.906;2024-01-06T05:25:32;21.63;;;16.08;;
52210;SDS011;38179;52.756;6.906;2024-01-06T05:27:58;22.13;;;15.77;;
52210;SDS011;38179;52.756;6.906;2024-01-06T05:30:23;22.48;;;15.73;;
52210;SDS011;38179;52.756;6.906;2024-01-06T05:32:49;20.92;;;15.70;;
52210;SDS011;38179;52.756;6.906;2024-01-06T05:35:18;23.33;;;16.80;;
52210;SDS011;38179;52.756;6.906;2024-01-06T05:37:44;22.70;;;17.33;;
52210;SDS011;38179;52.756;6.906;2024-01-06T05:40:09;22.48;;;16.90;;
52210;SDS011;38179;52.756;6.906;2024-01-06T05:42:36;22.80;;;16.48;;
52210;SDS011;38179;52.756;6.906;2024-01-06T05:45:02;22.48;;;16.58;;
52210;SDS011;38179;52.756;6.906;2024-01-06T05:47:28;24.75;;;18.15;;
52210;SDS011;38179;52.756;6.906;2024-01-06T05:49:53;27.25;;;17.73;;
52210;SDS011;38179;52.756;6.906;2024-01-06T05:52:19;23.30;;;17.98;;
52210;SDS011;38179;52.756;6.906;2024-01-06T05:54:45;24.17;;;17.85;;
52210;SDS011;38179;52.756;6.906;2024-01-06T05:57:10;25.63;;;17.73;;
52210;SDS011;38179;52.756;6.906;2024-01-06T05:59:36;24.00;;;17.60;;
52210;SDS011;38179;52.756;6.906;2024-01-06T06:02:02;24.90;;;17.45;;
52210;SDS011;38179;52.756;6.906;2024-01-06T06:04:28;30.98;;;18.65;;
52210;SDS011;38179;52.756;6.906;2024-01-06T06:06:54;24.65;;;17.52;;
52210;SDS011;38179;52.756;6.906;2024-01-06T06:09:20;24.15;;;17.30;;
52210;SDS011;38179;52.756;6.906;2024-01-06T06:11:47;26.70;;;17.23;;
52210;SDS011;38179;52.756;6.906;2024-01-06T06:14:13;25.00;;;18.08;;
52210;SDS011;38179;52.756;6.906;2024-01-06T06:16:39;24.67;;;17.50;;
52210;SDS011;38179;52.756;6.906;2024-01-06T06:19:04;22.73;;;17.20;;
52210;SDS011;38179;52.756;6.906;2024-01-06T06:21:31;23.77;;;17.08;;
52210;SDS011;38179;52.756;6.906;2024-01-06T06:23:56;27.00;;;17.58;;
52210;SDS011;38179;52.756;6.906;2024-01-06T06:26:22;24.85;;;17.63;;
52210;SDS011;38179;52.756;6.906;2024-01-06T06:28:47;23.80;;;16.77;;
52210;SDS011;38179;52.756;6.906;2024-01-06T06:31:13;22.65;;;16.58;;
52210;SDS011;38179;52.756;6.906;2024-01-06T06:33:39;23.33;;;17.70;;
52210;SDS011;38179;52.756;6.906;2024-01-06T06:36:05;26.45;;;17.48;;
52210;SDS011;38179;52.756;6.906;2024-01-06T06:38:31;24.73;;;16.75;;
52210;SDS011;38179;52.756;6.906;2024-01-06T06:40:57;24.17;;;16.73;;
52210;SDS011;38179;52.756;6.906;2024-01-06T06:43:22;27.63;;;17.33;;
52210;SDS011;38179;52.756;6.906;2024-01-06T06:45:48;27.90;;;17.05;;
52210;SDS011;38179;52.756;6.906;2024-01-06T06:48:14;24.48;;;17.67;;
52210;SDS011;38179;52.756;6.906;2024-01-06T06:50:39;27.58;;;17.67;;
52210;SDS011;38179;52.756;6.906;2024-01-06T06:53:06;22.15;;;16.25;;
52210;SDS011;38179;52.756;6.906;2024-01-06T06:55:32;24.48;;;16.73;;
52210;SDS011;38179;52.756;6.906;2024-01-06T06:57:58;26.15;;;17.13;;
52210;SDS011;38179;52.756;6.906;2024-01-06T07:00:24;24.88;;;17.15;;
52210;SDS011;38179;52.756;6.906;2024-01-06T07:02:50;24.05;;;17.02;;
52210;SDS011;38179;52.756;6.906;2024-01-06T07:05:15;22.65;;;17.02;;
52210;SDS011;38179;52.756;6.906;2024-01-06T07:07:42;27.95;;;18.05;;
52210;SDS011;38179;52.756;6.906;2024-01-06T07:10:11;26.95;;;17.52;;
52210;SDS011;38179;52.756;6.906;2024-01-06T07:12:38;23.75;;;17.08;;
52210;SDS011;38179;52.756;6.906;2024-01-06T07:15:04;25.63;;;16.75;;
52210;SDS011;38179;52.756;6.906;2024-01-06T07:17:30;25.88;;;16.35;;
52210;SDS011;38179;52.756;6.906;2024-01-06T07:19:55;22.85;;;17.08;;
52210;SDS011;38179;52.756;6.906;2024-01-06T07:22:21;26.75;;;16.65;;
52210;SDS011;38179;52.756;6.906;2024-01-06T07:24:47;24.73;;;16.73;;
52210;SDS011;38179;52.756;6.906;2024-01-06T07:27:12;22.63;;;16.83;;
52210;SDS011;38179;52.756;6.906;2024-01-06T07:29:38;22.10;;;16.33;;
52210;SDS011;38179;52.756;6.906;2024-01-06T07:32:04;24.58;;;17.90;;
52210;SDS011;38179;52.756;6.906;2024-01-06T07:34:31;23.83;;;16.75;;
52210;SDS011;38179;52.756;6.906;2024-01-06T07:36:57;23.90;;;16.65;;
52210;SDS011;38179;52.756;6.906;2024-01-06T07:39:23;25.00;;;18.27;;
52210;SDS011;38179;52.756;6.906;2024-01-06T07:41:49;22.92;;;17.20;;
52210;SDS011;38179;52.756;6.906;2024-01-06T07:44:15;21.92;;;15.65;;
52210;SDS011;38179;52.756;6.906;2024-01-06T07:46:41;23.17;;;15.63;;
52210;SDS011;38179;52.756;6.906;2024-01-06T07:49:07;23.42;;;16.48;;
52210;SDS011;38179;52.756;6.906;2024-01-06T07:51:32;19.60;;;14.85;;
52210;SDS011;38179;52.756;6.906;2024-01-06T07:54:00;20.48;;;15.05;;
52210;SDS011;38179;52.756;6.906;2024-01-06T07:56:26;19.83;;;15.30;;
52210;SDS011;38179;52.756;6.906;2024-01-06T07:58:52;20.88;;;15.75;;
52210;SDS011;38179;52.756;6.906;2024-01-06T08:01:17;19.58;;;15.50;;
52210;SDS011;38179;52.756;6.906;2024-01-06T08:03:43;20.85;;;15.50;;
52210;SDS011;38179;52.756;6.906;2024-01-06T08:06:09;21.10;;;15.77;;
52210;SDS011;38179;52.756;6.906;2024-01-06T08:08:35;20.02;;;16.17;;
52210;SDS011;38179;52.756;6.906;2024-01-06T08:11:01;19.80;;;15.45;;
52210;SDS011;38179;52.756;6.906;2024-01-06T08:13:27;18.08;;;14.23;;
52210;SDS011;38179;52.756;6.906;2024-01-06T08:15:53;22.35;;;15.68;;
52210;SDS011;38179;52.756;6.906;2024-01-06T08:18:20;20.45;;;15.98;;
52210;SDS011;38179;52.756;6.906;2024-01-06T08:20:47;20.10;;;15.35;;
52210;SDS011;38179;52.756;6.906;2024-01-06T08:23:13;21.58;;;15.57;;
52210;SDS011;38179;52.756;6.906;2024-01-06T08:25:39;19.63;;;15.55;;
52210;SDS011;38179;52.756;6.906;2024-01-06T08:28:05;19.80;;;15.00;;
52210;SDS011;38179;52.756;6.906;2024-01-06T08:30:31;20.60;;;16.08;;
52210;SDS011;38179;52.756;6.906;2024-01-06T08:32:57;21.23;;;16.67;;
52210;SDS011;38179;52.756;6.906;2024-01-06T08:35:24;18.92;;;14.65;;
52210;SDS011;38179;52.756;6.906;2024-01-06T08:37:50;18.88;;;14.98;;
52210;SDS011;38179;52.756;6.906;2024-01-06T08:40:17;20.80;;;15.63;;
52210;SDS011;38179;52.756;6.906;2024-01-06T08:42:47;20.30;;;15.32;;
52210;SDS011;38179;52.756;6.906;2024-01-06T08:45:16;20.02;;;15.60;;
52210;SDS011;38179;52.756;6.906;2024-01-06T08:47:43;19.80;;;15.52;;
52210;SDS011;38179;52.756;6.906;2024-01-06T08:50:09;21.48;;;15.35;;
52210;SDS011;38179;52.756;6.906;2024-01-06T08:52:34;20.00;;;15.38;;
52210;SDS011;38179;52.756;6.906;2024-01-06T08:55:00;20.65;;;16.33;;
52210;SDS011;38179;52.756;6.906;2024-01-06T08:57:26;21.05;;;15.90;;
52210;SDS011;38179;52.756;6.906;2024-01-06T08:59:51;19.45;;;15.45;;
52210;SDS011;38179;52.756;6.906;2024-01-06T09:02:17;19.95;;;15.07;;
52210;SDS011;38179;52.756;6.906;2024-01-06T09:04:43;18.17;;;14.68;;
52210;SDS011;38179;52.756;6.906;2024-01-06T09:07:08;21.65;;;16.08;;
52210;SDS011;38179;52.756;6.906;2024-01-06T09:09:35;21.00;;;15.77;;
52210;SDS011;38179;52.756;6.906;2024-01-06T09:12:01;19.48;;;14.77;;
52210;SDS011;38179;52.756;6.906;2024-01-06T09:14:27;19.08;;;15.48;;
52210;SDS011;38179;52.756;6.906;2024-01-06T09:16:53;23.10;;;15.45;;
52210;SDS011;38179;52.756;6.906;2024-01-06T09:19:19;22.38;;;15.73;;
52210;SDS011;38179;52.756;6.906;2024-01-06T09:21:45;21.35;;;16.00;;
52210;SDS011;38179;52.756;6.906;2024-01-06T09:24:10;20.90;;;15.95;;
52210;SDS011;38179;52.756;6.906;2024-01-06T09:26:36;21.02;;;15.85;;
52210;SDS011;38179;52.756;6.906;2024-01-06T09:29:02;20.02;;;16.48;;
52210;SDS011;38179;52.756;6.906;2024-01-06T09:31:29;20.52;;;15.73;;
52210;SDS011;38179;52.756;6.906;2024-01-06T09:33:54;18.98;;;14.90;;
52210;SDS011;38179;52.756;6.906;2024-01-06T09:36:20;19.73;;;15.18;;
52210;SDS011;38179;52.756;6.906;2024-01-06T09:38:46;20.05;;;15.85;;
52210;SDS011;38179;52.756;6.906;2024-01-06T09:41:11;19.63;;;15.35;;
52210;SDS011;38179;52.756;6.906;2024-01-06T09:43:37;19.85;;;14.88;;
52210;SDS011;38179;52.756;6.906;2024-01-06T09:46:10;19.77;;;14.95;;
52210;SDS011;38179;52.756;6.906;2024-01-06T09:48:42;19.67;;;14.88;;
52210;SDS011;38179;52.756;6.906;2024-01-06T09:51:11;19.40;;;15.18;;
52210;SDS011;38179;52.756;6.906;2024-01-06T09:53:40;20.10;;;15.13;;
52210;SDS011;38179;52.756;6.906;2024-01-06T09:56:12;20.23;;;15.07;;
52210;SDS011;38179;52.756;6.906;2024-01-06T09:58:40;20.90;;;16.13;;
52210;SDS011;38179;52.756;6.906;2024-01-06T10:01:06;20.88;;;15.90;;
52210;SDS011;38179;52.756;6.906;2024-01-06T10:03:34;18.88;;;15.00;;
52210;SDS011;38179;52.756;6.906;2024-01-06T10:06:01;21.55;;;16.48;;
52210;SDS011;38179;52.756;6.906;2024-01-06T10:08:29;21.20;;;16.33;;
52210;SDS011;38179;52.756;6.906;2024-01-06T10:10:55;21.40;;;15.32;;
52210;SDS011;38179;52.756;6.906;2024-01-06T10:13:20;21.85;;;16.63;;
52210;SDS011;38179;52.756;6.906;2024-01-06T10:15:46;21.27;;;17.20;;
52210;SDS011;38179;52.756;6.906;2024-01-06T10:18:13;21.15;;;16.55;;
52210;SDS011;38179;52.756;6.906;2024-01-06T10:20:38;21.08;;;16.13;;
52210;SDS011;38179;52.756;6.906;2024-01-06T10:23:04;22.30;;;17.67;;
52210;SDS011;38179;52.756;6.906;2024-01-06T10:25:31;20.58;;;15.70;;
52210;SDS011;38179;52.756;6.906;2024-01-06T10:27:57;20.77;;;16.67;;
52210;SDS011;38179;52.756;6.906;2024-01-06T10:30:26;21.92;;;16.67;;
52210;SDS011;38179;52.756;6.906;2024-01-06T10:32:52;22.42;;;17.05;;
52210;SDS011;38179;52.756;6.906;2024-01-06T10:35:18;21.77;;;17.02;;
52210;SDS011;38179;52.756;6.906;2024-01-06T10:37:45;22.40;;;17.23;;
52210;SDS011;38179;52.756;6.906;2024-01-06T10:40:11;22.02;;;16.80;;
52210;SDS011;38179;52.756;6.906;2024-01-06T10:42:39;20.85;;;16.35;;
52210;SDS011;38179;52.756;6.906;2024-01-06T10:45:06;21.98;;;17.70;;
52210;SDS011;38179;52.756;6.906;2024-01-06T10:47:34;20.75;;;16.90;;
52210;SDS011;38179;52.756;6.906;2024-01-06T10:50:03;21.55;;;16.10;;
52210;SDS011;38179;52.756;6.906;2024-01-06T10:52:30;23.75;;;18.38;;
52210;SDS011;38179;52.756;6.906;2024-01-06T10:54:56;25.73;;;17.73;;
52210;SDS011;38179;52.756;6.906;2024-01-06T10:57:23;22.60;;;17.27;;
52210;SDS011;38179;52.756;6.906;2024-01-06T10:59:50;22.10;;;17.25;;
52210;SDS011;38179;52.756;6.906;2024-01-06T11:02:16;23.30;;;17.98;;
52210;SDS011;38179;52.756;6.906;2024-01-06T11:04:46;25.15;;;18.40;;
52210;SDS011;38179;52.756;6.906;2024-01-06T11:07:16;24.10;;;18.60;;
52210;SDS011;38179;52.756;6.906;2024-01-06T11:09:56;23.75;;;15.70;;
52210;SDS011;38179;52.756;6.906;2024-01-06T11:12:30;21.60;;;16.00;;
52210;SDS011;38179;52.756;6.906;2024-01-06T11:14:56;22.67;;;16.98;;
52210;SDS011;38179;52.756;6.906;2024-01-06T11:20:24;22.73;;;17.65;;
52210;SDS011;38179;52.756;6.906;2024-01-06T11:22:52;23.73;;;17.10;;
52210;SDS011;38179;52.756;6.906;2024-01-06T11:25:21;22.23;;;17.13;;
52210;SDS011;38179;52.756;6.906;2024-01-06T11:27:48;23.30;;;16.50;;
52210;SDS011;38179;52.756;6.906;2024-01-06T11:30:21;23.65;;;17.40;;
52210;SDS011;38179;52.756;6.906;2024-01-06T11:32:52;22.25;;;16.38;;
52210;SDS011;38179;52.756;6.906;2024-01-06T11:35:18;23.23;;;17.50;;
52210;SDS011;38179;52.756;6.906;2024-01-06T11:40:32;22.92;;;17.83;;
52210;SDS011;38179;52.756;6.906;2024-01-06T11:43:07;23.45;;;17.20;;
52210;SDS011;38179;52.756;6.906;2024-01-06T11:45:34;23.92;;;16.90;;
52210;SDS011;38179;52.756;6.906;2024-01-06T11:48:05;23.45;;;17.80;;
52210;SDS011;38179;52.756;6.906;2024-01-06T11:50:36;23.98;;;16.25;;
52210;SDS011;38179;52.756;6.906;2024-01-06T11:53:04;22.55;;;17.38;;
52210;SDS011;38179;52.756;6.906;2024-01-06T11:55:30;24.60;;;17.08;;
52210;SDS011;38179;52.756;6.906;2024-01-06T11:58:00;24.10;;;17.10;;
52210;SDS011;38179;52.756;6.906;2024-01-06T12:00:29;22.75;;;16.67;;
52210;SDS011;38179;52.756;6.906;2024-01-06T12:02:58;22.63;;;16.98;;
52210;SDS011;38179;52.756;6.906;2024-01-06T12:05:26;22.42;;;15.77;;
52210;SDS011;38179;52.756;6.906;2024-01-06T12:07:56;21.95;;;17.02;;
52210;SDS011;38179;52.756;6.906;2024-01-06T12:10:26;25.45;;;18.85;;
52210;SDS011;38179;52.756;6.906;2024-01-06T12:15:24;23.70;;;16.92;;
52210;SDS011;38179;52.756;6.906;2024-01-06T12:17:50;21.83;;;17.13;;
52210;SDS011;38179;52.756;6.906;2024-01-06T12:20:15;25.60;;;17.08;;
52210;SDS011;38179;52.756;6.906;2024-01-06T12:22:41;23.35;;;16.20;;
52210;SDS011;38179;52.756;6.906;2024-01-06T12:25:09;24.08;;;17.58;;
52210;SDS011;38179;52.756;6.906;2024-01-06T12:27:35;23.70;;;17.58;;
52210;SDS011;38179;52.756;6.906;2024-01-06T12:30:00;23.48;;;17.08;;
52210;SDS011;38179;52.756;6.906;2024-01-06T12:32:27;25.17;;;18.27;;
52210;SDS011;38179;52.756;6.906;2024-01-06T12:34:53;24.98;;;18.60;;
52210;SDS011;38179;52.756;6.906;2024-01-06T12:37:19;24.92;;;18.50;;
52210;SDS011;38179;52.756;6.906;2024-01-06T12:39:44;25.77;;;18.40;;
52210;SDS011;38179;52.756;6.906;2024-01-06T12:42:14;24.67;;;17.55;;
52210;SDS011;38179;52.756;6.906;2024-01-06T12:44:41;26.27;;;19.52;;
52210;SDS011;38179;52.756;6.906;2024-01-06T12:47:07;25.60;;;18.17;;
52210;SDS011;38179;52.756;6.906;2024-01-06T12:49:33;23.95;;;16.90;;
52210;SDS011;38179;52.756;6.906;2024-01-06T12:51:59;26.30;;;19.10;;
52210;SDS011;38179;52.756;6.906;2024-01-06T12:54:25;27.75;;;18.92;;
52210;SDS011;38179;52.756;6.906;2024-01-06T12:56:50;24.17;;;18.20;;
52210;SDS011;38179;52.756;6.906;2024-01-06T12:59:16;24.42;;;17.83;;
52210;SDS011;38179;52.756;6.906;2024-01-06T13:01:42;23.45;;;17.55;;
52210;SDS011;38179;52.756;6.906;2024-01-06T13:04:08;23.52;;;18.38;;
52210;SDS011;38179;52.756;6.906;2024-01-06T13:06:34;23.25;;;17.52;;
52210;SDS011;38179;52.756;6.906;2024-01-06T13:09:00;23.63;;;16.50;;
52210;SDS011;38179;52.756;6.906;2024-01-06T13:11:29;22.38;;;16.67;;
52210;SDS011;38179;52.756;6.906;2024-01-06T13:13:58;23.20;;;17.33;;
52210;SDS011;38179;52.756;6.906;2024-01-06T13:16:26;22.13;;;17.17;;
52210;SDS011;38179;52.756;6.906;2024-01-06T13:18:51;22.17;;;17.10;;
52210;SDS011;38179;52.756;6.906;2024-01-06T13:21:17;23.55;;;16.95;;
52210;SDS011;38179;52.756;6.906;2024-01-06T13:23:43;23.88;;;17.20;;
52210;SDS011;38179;52.756;6.906;2024-01-06T13:26:09;24.60;;;17.67;;
52210;SDS011;38179;52.756;6.906;2024-01-06T13:28:35;22.10;;;17.17;;
52210;SDS011;38179;52.756;6.906;2024-01-06T13:31:00;23.92;;;17.98;;
52210;SDS011;38179;52.756;6.906;2024-01-06T13:33:26;26.52;;;17.55;;
52210;SDS011;38179;52.756;6.906;2024-01-06T13:35:52;23.00;;;17.10;;
52210;SDS011;38179;52.756;6.906;2024-01-06T13:38:17;22.50;;;16.77;;
52210;SDS011;38179;52.756;6.906;2024-01-06T13:40:43;23.75;;;16.73;;
52210;SDS011;38179;52.756;6.906;2024-01-06T13:43:09;23.38;;;17.58;;
52210;SDS011;38179;52.756;6.906;2024-01-06T13:45:40;23.90;;;18.15;;
52210;SDS011;38179;52.756;6.906;2024-01-06T13:48:13;22.65;;;17.48;;
52210;SDS011;38179;52.756;6.906;2024-01-06T13:50:39;22.77;;;17.02;;
52210;SDS011;38179;52.756;6.906;2024-01-06T13:53:07;23.55;;;17.98;;
52210;SDS011;38179;52.756;6.906;2024-01-06T13:55:33;24.05;;;17.17;;
52210;SDS011;38179;52.756;6.906;2024-01-06T13:57:59;24.70;;;17.95;;
52210;SDS011;38179;52.756;6.906;2024-01-06T14:00:24;24.35;;;17.13;;
52210;SDS011;38179;52.756;6.906;2024-01-06T14:02:51;21.88;;;15.98;;
52210;SDS011;38179;52.756;6.906;2024-01-06T14:05:17;22.67;;;17.13;;
52210;SDS011;38179;52.756;6.906;2024-01-06T14:07:44;23.20;;;17.70;;
52210;SDS011;38179;52.756;6.906;2024-01-06T14:10:12;25.83;;;17.75;;
52210;SDS011;38179;52.756;6.906;2024-01-06T14:12:39;23.55;;;17.88;;
52210;SDS011;38179;52.756;6.906;2024-01-06T14:15:05;23.95;;;17.40;;
52210;SDS011;38179;52.756;6.906;2024-01-06T14:17:32;24.17;;;17.23;;
52210;SDS011;38179;52.756;6.906;2024-01-06T14:19:57;25.52;;;18.13;;
52210;SDS011;38179;52.756;6.906;2024-01-06T14:22:23;23.30;;;17.95;;
52210;SDS011;38179;52.756;6.906;2024-01-06T14:24:49;24.50;;;18.10;;